Time;durP1;ratioP1;P1;durP2;ratioP2;P2;SDS_P1;SDS_P2;PMS_P1;PMS_P2;Temp;Humidity;BMP_temperature;BMP_pressure;BME280_temperature;BME280_humidity;BME280_pressure;Samples;Min_cycle;Max_cycle;Signal;HPM_P1;HPM_P2
2022/06/16 00:01:56;;;;;;;6.70;4.07;;;13.60;99.90;;;;;;4918127;29;20066;-95
2022/06/16 00:04:23;;;;;;;8.80;3.90;;;13.60;99.90;;;;;;4928076;29;20494;-95
2022/06/16 00:06:55;;;;;;;6.63;4.10;;;13.60;99.90;;;;;;4915093;29;20027;-95
2022/06/16 00:09:21;;;;;;;6.68;3.85;;;13.60;99.90;;;;;;4913425;29;20091;-95
2022/06/16 00:11:47;;;;;;;6.57;4.32;;;13.50;99.90;;;;;;4916949;29;20036;-96
2022/06/16 00:14:13;;;;;;;8.93;4.95;;;13.50;99.90;;;;;;4914756;29;20032;-95
2022/06/16 00:16:39;;;;;;;5.55;3.50;;;13.50;99.90;;;;;;4929476;29;20125;-95
2022/06/16 00:19:04;;;;;;;5.97;4.18;;;13.40;99.90;;;;;;4915158;29;20068;-95
2022/06/16 00:21:30;;;;;;;9.68;3.67;;;13.40;99.90;;;;;;4932296;29;20035;-94
2022/06/16 00:23:56;;;;;;;6.55;4.65;;;13.40;99.90;;;;;;4912057;29;20024;-95
2022/06/16 00:26:25;;;;;;;6.80;4.10;;;13.30;99.90;;;;;;4914836;29;20091;-95
2022/06/16 00:28:50;;;;;;;9.30;4.63;;;13.20;99.90;;;;;;4914267;29;20124;-93
2022/06/16 00:31:19;;;;;;;7.10;4.00;;;13.10;99.90;;;;;;4920215;29;20126;-94
2022/06/16 00:33:46;;;;;;;4.85;3.80;;;13.10;99.90;;;;;;4921282;29;20055;-95
2022/06/16 00:36:14;;;;;;;8.85;4.93;;;13.00;99.90;;;;;;4908487;29;20024;-93
2022/06/16 00:38:40;;;;;;;9.57;3.40;;;13.00;99.90;;;;;;4925758;29;20040;-93
2022/06/16 00:41:07;;;;;;;10.27;3.67;;;13.00;99.90;;;;;;4951430;28;20060;-95
2022/06/16 00:43:33;;;;;;;6.55;3.70;;;12.90;99.90;;;;;;4936155;29;20032;-93
2022/06/16 00:46:04;;;;;;;8.27;3.70;;;12.90;99.90;;;;;;4915150;29;20469;-95
2022/06/16 00:48:42;;;;;;;6.30;4.15;;;12.90;99.90;;;;;;4912516;29;20126;-94
2022/06/16 00:51:11;;;;;;;6.22;3.88;;;12.80;99.90;;;;;;4911684;29;20030;-96
2022/06/16 00:53:41;;;;;;;7.38;4.22;;;12.80;99.90;;;;;;4915001;29;20034;-95
2022/06/16 00:56:10;;;;;;;7.22;4.40;;;12.80;99.90;;;;;;4913270;29;20035;-95
2022/06/16 00:58:40;;;;;;;16.25;4.07;;;12.70;99.90;;;;;;4911136;29;20083;-95
2022/06/16 01:01:09;;;;;;;5.88;3.88;;;12.70;99.90;;;;;;4913737;29;20015;-95
2022/06/16 01:06:23;;;;;;;9.25;4.18;;;12.70;99.90;;;;;;4932610;29;20171;-96
2022/06/16 01:08:53;;;;;;;6.78;3.75;;;12.70;99.90;;;;;;4912929;29;20033;-94
2022/06/16 01:15:01;;;;;;;7.22;3.80;;;12.60;99.90;;;;;;4927436;29;20459;-95
2022/06/16 01:18:08;;;;;;;8.23;3.70;;;12.60;99.90;;;;;;4926869;29;20028;-96
2022/06/16 01:20:38;;;;;;;7.28;4.47;;;12.50;99.90;;;;;;4928239;29;20032;-95
2022/06/16 01:23:38;;;;;;;6.40;3.55;;;12.50;99.90;;;;;;4926859;29;20123;-95
2022/06/16 01:26:42;;;;;;;6.95;3.90;;;12.40;99.90;;;;;;4912038;29;20037;-95
2022/06/16 01:29:26;;;;;;;8.95;4.63;;;12.40;99.90;;;;;;4915290;29;20114;-95
2022/06/16 01:32:07;;;;;;;6.53;4.40;;;12.30;99.90;;;;;;4889797;29;20192;-95
2022/06/16 01:34:58;;;;;;;6.28;3.60;;;12.30;99.90;;;;;;4893701;29;20024;-95
2022/06/16 01:37:45;;;;;;;6.15;4.25;;;12.20;99.90;;;;;;4913985;29;20029;-95
2022/06/16 01:40:21;;;;;;;9.63;3.88;;;12.20;99.90;;;;;;4900548;29;20093;-94
2022/06/16 01:43:22;;;;;;;7.20;3.85;;;12.20;99.90;;;;;;4896091;29;20032;-94
2022/06/16 01:45:54;;;;;;;8.23;3.83;;;12.10;99.90;;;;;;4911193;29;20066;-91
2022/06/16 01:48:24;;;;;;;9.57;4.50;;;12.00;99.90;;;;;;4905850;29;20032;-96
2022/06/16 01:50:58;;;;;;;12.13;4.78;;;11.90;99.90;;;;;;4891508;29;20033;-94
2022/06/16 01:53:42;;;;;;;9.73;5.00;;;11.80;99.90;;;;;;4885924;29;20032;-93
2022/06/16 01:56:24;;;;;;;13.40;5.50;;;11.70;99.90;;;;;;4889002;29;20025;-94
2022/06/16 01:58:58;;;;;;;7.78;4.47;;;11.70;99.90;;;;;;4890856;29;20035;-94
2022/06/16 02:01:29;;;;;;;8.80;4.28;;;11.70;99.90;;;;;;4889969;29;20100;-93
2022/06/16 02:04:02;;;;;;;7.78;3.85;;;11.60;99.90;;;;;;4890283;29;20028;-94
2022/06/16 02:06:32;;;;;;;7.47;4.55;;;11.60;99.90;;;;;;4891102;29;20060;-95
2022/06/16 02:09:06;;;;;;;7.10;4.07;;;11.50;99.90;;;;;;4891108;29;20057;-95
2022/06/16 02:11:34;;;;;;;6.53;4.10;;;11.50;99.90;;;;;;4888905;29;20039;-93
2022/06/16 02:14:32;;;;;;;5.45;3.75;;;11.40;99.90;;;;;;4884620;29;20041;-94
2022/06/16 02:16:59;;;;;;;8.57;3.58;;;11.40;99.90;;;;;;4883592;29;20025;-95
2022/06/16 02:19:26;;;;;;;6.90;3.95;;;11.40;99.90;;;;;;4890645;29;20027;-94
2022/06/16 02:21:52;;;;;;;7.00;3.90;;;11.40;99.90;;;;;;4885371;29;20566;-95
2022/06/16 02:24:21;;;;;;;7.82;4.20;;;11.40;99.90;;;;;;4893069;29;20029;-94
2022/06/16 02:26:48;;;;;;;6.30;3.47;;;11.40;99.90;;;;;;4898567;29;20044;-96
2022/06/16 02:29:32;;;;;;;8.23;4.45;;;11.30;99.90;;;;;;4890158;29;20068;-93
2022/06/16 02:32:21;;;;;;;8.80;4.78;;;11.30;99.90;;;;;;4903687;29;20044;-94
2022/06/16 02:35:09;;;;;;;7.32;4.10;;;11.20;99.90;;;;;;4909862;29;20127;-93
2022/06/16 02:38:00;;;;;;;4.93;3.65;;;11.10;99.90;;;;;;4902976;29;20025;-94
2022/06/16 02:41:01;;;;;;;6.82;4.13;;;11.10;99.90;;;;;;4909859;29;20065;-95
2022/06/16 02:43:42;;;;;;;8.20;4.40;;;11.00;99.90;;;;;;4906789;29;20040;-96
2022/06/16 02:46:12;;;;;;;;;;;11.00;99.90;;;;;;4905018;29;20304;-94
2022/06/16 02:48:58;;;;;;;7.43;4.53;;;11.00;99.90;;;;;;4902892;29;19970;-95
2022/06/16 02:51:34;;;;;;;9.63;4.22;;;11.00;99.90;;;;;;4904930;29;20041;-94
2022/06/16 02:54:21;;;;;;;8.80;4.47;;;11.00;99.90;;;;;;4911505;29;20107;-94
2022/06/16 02:57:07;;;;;;;6.63;4.30;;;11.00;99.90;;;;;;4907650;29;20116;-93
2022/06/16 02:59:38;;;;;;;5.50;4.18;;;10.90;99.90;;;;;;4906562;29;20056;-93
2022/06/16 03:02:15;;;;;;;13.10;5.35;;;10.90;99.90;;;;;;4903734;29;20029;-93
2022/06/16 03:04:45;;;;;;;6.22;4.00;;;10.90;99.90;;;;;;4902413;29;20020;-94
2022/06/16 03:07:12;;;;;;;7.10;4.75;;;10.80;99.90;;;;;;4911061;29;20025;-95
2022/06/16 03:09:38;;;;;;;8.80;4.72;;;10.80;99.90;;;;;;4906399;29;20028;-94
2022/06/16 03:12:09;;;;;;;10.80;5.25;;;10.70;99.90;;;;;;4908145;29;20690;-93
2022/06/16 03:14:35;;;;;;;;;;;10.70;99.90;;;;;;4911550;29;20024;-94
2022/06/16 03:17:02;;;;;;;10.05;5.10;;;10.50;99.90;;;;;;4904639;29;19991;-94
2022/06/16 03:19:28;;;;;;;9.98;5.20;;;10.50;99.90;;;;;;4905377;29;20028;-92
2022/06/16 03:21:54;;;;;;;8.70;5.13;;;10.40;99.90;;;;;;4909009;29;20087;-92
2022/06/16 03:24:21;;;;;;;8.93;4.82;;;10.40;99.90;;;;;;4907674;29;20079;-92
2022/06/16 03:26:46;;;;;;;9.02;5.25;;;10.40;99.90;;;;;;4907373;29;20088;-94
2022/06/16 03:29:13;;;;;;;8.15;4.90;;;10.40;99.90;;;;;;4904599;29;20049;-92
2022/06/16 03:31:39;;;;;;;10.55;5.15;;;10.40;99.90;;;;;;4911205;29;20051;-93
2022/06/16 03:34:04;;;;;;;10.18;5.07;;;10.40;99.90;;;;;;4910197;29;20036;-94
2022/06/16 03:36:31;;;;;;;7.28;4.53;;;10.40;99.90;;;;;;4916842;29;20024;-94
2022/06/16 03:38:57;;;;;;;12.40;4.82;;;10.40;99.90;;;;;;4921473;29;20024;-94
2022/06/16 03:41:23;;;;;;;9.77;5.45;;;10.40;99.90;;;;;;4927198;29;20042;-93
2022/06/16 03:43:49;;;;;;;12.98;5.80;;;10.40;99.90;;;;;;4927326;29;20402;-93
2022/06/16 03:46:16;;;;;;;11.32;5.90;;;10.30;99.90;;;;;;4932654;29;20068;-93
2022/06/16 03:48:43;;;;;;;9.35;5.43;;;10.20;99.90;;;;;;4914505;29;20068;-94
2022/06/16 03:51:09;;;;;;;12.68;5.63;;;10.10;99.90;;;;;;4928386;29;20478;-95
2022/06/16 03:53:36;;;;;;;12.82;6.60;;;10.10;99.90;;;;;;4913437;29;20124;-95
2022/06/16 03:56:02;;;;;;;8.80;5.35;;;10.10;99.90;;;;;;4915615;29;20020;-92
2022/06/16 03:58:28;;;;;;;11.40;4.75;;;10.10;99.90;;;;;;4921145;29;20082;-93
2022/06/16 04:00:53;;;;;;;9.02;4.70;;;10.10;99.90;;;;;;4904162;29;20028;-94
2022/06/16 04:06:03;;;;;;;8.13;4.10;;;10.10;99.90;;;;;;4928763;29;20062;-94
2022/06/16 04:08:29;;;;;;;10.02;4.25;;;10.10;99.90;;;;;;4914079;29;20055;-93
2022/06/16 04:10:56;;;;;;;5.88;4.40;;;10.10;99.90;;;;;;4917948;29;20063;-93
2022/06/16 04:13:23;;;;;;;6.82;4.93;;;10.10;99.90;;;;;;4914881;29;20028;-93
2022/06/16 04:15:52;;;;;;;7.88;5.28;;;10.10;99.90;;;;;;4917017;29;20024;-93
2022/06/16 04:18:21;;;;;;;8.30;4.53;;;10.00;99.90;;;;;;4911569;29;20028;-95
2022/06/16 04:20:47;;;;;;;7.47;5.00;;;10.00;99.90;;;;;;4911381;29;20367;-93
2022/06/16 04:23:13;;;;;;;10.73;5.20;;;10.00;99.90;;;;;;4914261;29;20031;-94
2022/06/16 04:25:41;;;;;;;9.50;4.90;;;10.00;99.90;;;;;;4909835;29;20028;-92
2022/06/16 04:28:07;;;;;;;7.53;5.00;;;9.90;99.90;;;;;;4915674;29;20027;-95
2022/06/16 04:30:33;;;;;;;9.23;4.63;;;10.00;99.90;;;;;;4920146;29;20050;-94
2022/06/16 04:32:59;;;;;;;9.80;5.03;;;10.00;99.90;;;;;;4914366;29;20038;-93
2022/06/16 04:35:27;;;;;;;6.22;5.07;;;10.00;99.90;;;;;;4919810;29;20031;-93
2022/06/16 04:37:53;;;;;;;13.27;5.50;;;10.00;99.90;;;;;;4927978;28;20140;-94
2022/06/16 04:40:19;;;;;;;7.90;4.50;;;10.00;99.90;;;;;;4936722;29;20084;-92
2022/06/16 04:42:45;;;;;;;7.95;4.47;;;10.00;99.90;;;;;;4914393;29;20126;-94
2022/06/16 04:45:12;;;;;;;10.02;5.75;;;10.10;99.90;;;;;;4933029;29;20032;-94
2022/06/16 04:47:40;;;;;;;6.55;3.85;;;10.10;99.90;;;;;;4929774;29;20143;-94
2022/06/16 04:50:07;;;;;;;7.32;4.50;;;10.10;99.90;;;;;;4913826;29;20016;-94
2022/06/16 04:52:33;;;;;;;8.07;3.88;;;10.10;99.90;;;;;;4919657;29;20044;-92
2022/06/16 04:54:59;;;;;;;6.40;3.95;;;10.20;99.90;;;;;;4916208;29;20031;-93
2022/06/16 04:57:25;;;;;;;8.10;4.85;;;10.20;99.90;;;;;;4916424;29;20035;-93
2022/06/16 04:59:52;;;;;;;13.85;4.85;;;10.20;99.90;;;;;;4915899;29;20497;-93
2022/06/16 05:02:18;;;;;;;6.70;4.40;;;10.20;99.90;;;;;;4915018;29;20042;-95
2022/06/16 05:04:44;;;;;;;10.95;4.95;;;10.30;99.90;;;;;;4915868;29;20024;-94
2022/06/16 05:07:11;;;;;;;12.80;4.68;;;10.30;99.90;;;;;;4912746;29;20038;-95
2022/06/16 05:09:37;;;;;;;10.40;4.95;;;10.30;99.90;;;;;;4915985;29;20044;-94
2022/06/16 05:12:04;;;;;;;10.27;4.28;;;10.30;99.90;;;;;;4933936;29;20038;-94
2022/06/16 05:14:29;;;;;;;9.73;4.10;;;10.40;99.90;;;;;;4913798;29;20449;-93
2022/06/16 05:16:55;;;;;;;6.88;4.50;;;10.30;99.90;;;;;;4915511;29;20023;-93
2022/06/16 05:19:21;;;;;;;8.32;4.22;;;10.40;99.90;;;;;;4913352;29;20040;-94
2022/06/16 05:21:47;;;;;;;10.73;4.03;;;10.40;99.90;;;;;;4911459;29;20032;-94
2022/06/16 05:24:12;;;;;;;8.52;4.32;;;10.40;99.90;;;;;;4920807;29;20039;-94
2022/06/16 05:26:41;;;;;;;6.18;4.15;;;10.50;99.90;;;;;;4912619;29;20048;-93
2022/06/16 05:29:06;;;;;;;6.85;3.50;;;10.50;99.90;;;;;;4921034;29;20055;-94
2022/06/16 05:31:34;;;;;;;5.38;3.88;;;10.60;99.90;;;;;;4912869;29;20058;-94
2022/06/16 05:34:01;;;;;;;7.55;3.70;;;10.60;99.90;;;;;;4909491;29;20067;-95
2022/06/16 05:36:27;;;;;;;7.22;3.92;;;10.60;99.90;;;;;;4917829;29;20066;-94
2022/06/16 05:38:53;;;;;;;7.50;4.18;;;10.70;99.90;;;;;;4908845;29;20055;-93
2022/06/16 05:41:18;;;;;;;7.10;4.65;;;10.80;99.90;;;;;;4921917;29;20028;-96
2022/06/16 05:43:45;;;;;;;6.38;4.05;;;10.90;99.90;;;;;;4913336;29;20027;-95
2022/06/16 05:46:19;;;;;;;7.25;4.15;;;10.90;99.90;;;;;;4908328;29;20167;-95
2022/06/16 05:48:45;;;;;;;9.43;4.55;;;11.10;99.90;;;;;;4910267;29;20035;-93
2022/06/16 05:51:13;;;;;;;5.22;4.18;;;11.10;99.90;;;;;;4913724;29;20032;-94
2022/06/16 05:53:41;;;;;;;7.20;4.50;;;11.20;99.90;;;;;;4914233;29;20038;-95
2022/06/16 05:56:07;;;;;;;9.43;4.00;;;11.30;99.90;;;;;;4913770;29;20506;-95
2022/06/16 05:58:33;;;;;;;9.48;4.20;;;11.40;99.90;;;;;;4910323;29;20138;-93
2022/06/16 06:00:59;;;;;;;8.27;4.05;;;11.50;99.90;;;;;;4910026;29;20446;-95
2022/06/16 06:03:26;;;;;;;7.15;4.03;;;11.50;99.90;;;;;;4912885;29;20031;-95
2022/06/16 06:05:51;;;;;;;6.53;4.57;;;11.60;99.90;;;;;;4912536;29;20063;-95
2022/06/16 06:16:40;;;;;;;9.20;3.90;;;11.90;99.90;;;;;;4929497;29;20050;-95
2022/06/16 06:19:23;;;;;;;8.90;3.80;;;12.00;99.90;;;;;;4931126;29;20038;-95
2022/06/16 06:22:03;;;;;;;9.65;4.35;;;12.00;99.90;;;;;;4911684;29;20478;-94
2022/06/16 06:24:41;;;;;;;6.85;3.50;;;12.10;99.90;;;;;;4915447;29;20444;-94
2022/06/16 06:27:31;;;;;;;8.00;4.03;;;12.20;99.90;;;;;;4914185;29;20031;-96
2022/06/16 06:30:09;;;;;;;6.38;3.38;;;12.30;99.90;;;;;;4934724;29;20056;-96
2022/06/16 06:32:36;;;;;;;5.68;3.25;;;12.30;99.90;;;;;;4914519;29;20040;-95
2022/06/16 06:35:06;;;;;;;6.55;3.63;;;12.40;99.90;;;;;;4925184;29;20020;-95
2022/06/16 06:37:31;;;;;;;9.00;3.77;;;12.40;99.90;;;;;;4923873;29;20020;-93
2022/06/16 06:39:57;;;;;;;9.07;4.30;;;12.50;99.90;;;;;;4928962;29;20039;-92
2022/06/16 06:42:26;;;;;;;8.55;3.35;;;12.60;99.90;;;;;;4931495;29;20044;-92
2022/06/16 06:44:54;;;;;;;8.43;3.75;;;12.60;99.90;;;;;;4931573;29;20030;-92
2022/06/16 06:47:24;;;;;;;6.70;3.00;;;12.70;99.90;;;;;;4904703;29;20036;-93
2022/06/16 06:49:50;;;;;;;7.07;4.43;;;12.90;99.90;;;;;;4921333;29;20050;-92
2022/06/16 06:52:19;;;;;;;10.43;3.90;;;13.00;99.90;;;;;;4918374;29;20044;-93
2022/06/16 06:54:45;;;;;;;7.40;3.95;;;13.00;99.90;;;;;;4917903;29;20398;-93
2022/06/16 06:57:14;;;;;;;7.43;3.95;;;13.10;99.90;;;;;;4918842;29;20545;-93
2022/06/16 06:59:40;;;;;;;5.50;3.25;;;13.20;99.90;;;;;;4916378;29;20028;-95
2022/06/16 07:02:07;;;;;;;7.45;3.63;;;13.20;99.90;;;;;;4909433;29;20024;-93
2022/06/16 07:04:32;;;;;;;4.82;3.13;;;13.30;99.90;;;;;;4908526;29;20075;-90
2022/06/16 07:06:58;;;;;;;12.30;3.92;;;13.40;99.90;;;;;;4910581;29;20032;-95
2022/06/16 07:09:24;;;;;;;7.30;4.28;;;13.60;99.90;;;;;;4913948;29;20445;-92
2022/06/16 07:11:50;;;;;;;9.20;3.58;;;13.80;99.90;;;;;;4914259;29;20036;-92
2022/06/16 07:14:15;;;;;;;4.82;3.00;;;13.90;99.90;;;;;;4916511;29;20549;-93
2022/06/16 07:16:41;;;;;;;11.02;3.70;;;14.00;99.90;;;;;;4914800;29;20031;-93
2022/06/16 07:19:07;;;;;;;7.68;2.80;;;14.10;99.90;;;;;;4918452;29;20355;-92
2022/06/16 07:21:33;;;;;;;7.85;3.15;;;14.30;99.90;;;;;;4916017;29;20024;-93
2022/06/16 07:23:59;;;;;;;5.25;3.38;;;14.40;99.90;;;;;;4915443;29;20043;-94
2022/06/16 07:26:25;;;;;;;5.65;2.90;;;14.50;99.90;;;;;;4915870;29;20549;-92
2022/06/16 07:28:51;;;;;;;11.82;3.13;;;14.60;99.90;;;;;;4914205;29;20024;-93
2022/06/16 07:31:17;;;;;;;7.82;3.38;;;14.80;99.90;;;;;;4916508;29;20047;-91
2022/06/16 07:33:44;;;;;;;5.00;2.33;;;14.90;99.90;;;;;;4933026;29;20060;-89
2022/06/16 07:36:10;;;;;;;7.65;2.53;;;15.00;99.90;;;;;;4928644;29;20035;-92
2022/06/16 07:38:37;;;;;;;6.93;2.80;;;15.10;99.90;;;;;;4929578;29;20031;-91
2022/06/16 07:43:47;;;;;;;9.20;2.65;;;15.30;99.90;;;;;;4940211;29;20046;-91
2022/06/16 07:46:13;;;;;;;11.63;3.10;;;15.50;99.90;;;;;;4923263;29;20087;-92
2022/06/16 07:48:39;;;;;;;4.07;2.50;;;15.60;99.90;;;;;;4923001;29;20027;-90
2022/06/16 07:51:05;;;;;;;5.82;2.33;;;15.70;99.90;;;;;;4922650;29;20027;-91
2022/06/16 07:53:31;;;;;;;4.50;2.35;;;15.80;99.90;;;;;;4922411;29;20032;-92
2022/06/16 07:55:57;;;;;;;7.15;2.40;;;15.90;99.90;;;;;;4922749;29;20115;-92
2022/06/16 07:58:29;;;;;;;5.72;1.98;;;16.10;99.90;;;;;;4912899;29;20118;-91
2022/06/16 08:00:55;;;;;;;8.50;2.15;;;16.20;99.90;;;;;;4901597;29;20037;-91
2022/06/16 08:03:26;;;;;;;9.25;2.10;;;16.30;99.90;;;;;;4904644;29;20020;-91
2022/06/16 08:05:55;;;;;;;5.07;1.85;;;16.40;99.90;;;;;;4902667;29;20046;-91
2022/06/16 08:08:23;;;;;;;3.38;2.17;;;16.60;99.90;;;;;;4903413;29;20075;-92
2022/06/16 08:10:53;;;;;;;3.78;1.90;;;16.80;99.90;;;;;;4904184;29;20028;-91
2022/06/16 08:13:21;;;;;;;4.78;2.10;;;16.90;99.40;;;;;;4903600;29;20036;-90
2022/06/16 08:15:48;;;;;;;3.42;2.03;;;17.00;98.80;;;;;;4903950;29;20043;-90
2022/06/16 08:18:17;;;;;;;2.90;1.90;;;17.20;98.30;;;;;;4937550;29;20066;-91
2022/06/16 08:20:43;;;;;;;6.47;1.80;;;17.40;97.80;;;;;;4916963;29;20046;-92
2022/06/16 08:23:09;;;;;;;4.38;1.80;;;17.60;97.40;;;;;;4921649;29;20034;-93
2022/06/16 08:25:35;;;;;;;6.22;1.77;;;17.70;96.80;;;;;;4922272;29;20032;-92
2022/06/16 08:28:03;;;;;;;4.90;1.98;;;17.90;96.00;;;;;;4921689;29;20477;-93
2022/06/16 08:30:30;;;;;;;4.22;1.73;;;18.00;95.30;;;;;;4921534;29;20055;-95
2022/06/16 08:32:58;;;;;;;7.55;1.50;;;18.20;94.70;;;;;;4914569;29;20048;-92
2022/06/16 08:35:23;;;;;;;2.42;1.55;;;18.30;94.10;;;;;;4902428;29;20431;-92
2022/06/16 08:37:50;;;;;;;3.47;1.30;;;18.50;93.10;;;;;;4905541;29;20032;-93
2022/06/16 08:40:18;;;;;;;3.88;1.70;;;18.70;92.40;;;;;;4906488;29;20043;-93
2022/06/16 08:42:54;;;;;;;3.50;1.50;;;18.80;91.60;;;;;;4902878;29;20027;-93
2022/06/16 08:45:37;;;;;;;6.38;2.28;;;19.00;90.70;;;;;;4914887;29;20104;-92
2022/06/16 08:48:30;;;;;;;2.40;1.30;;;19.20;89.70;;;;;;4907720;29;20036;-93
2022/06/16 08:50:55;;;;;;;3.03;1.00;;;19.30;86.70;;;;;;4903713;29;20028;-93
2022/06/16 08:53:54;;;;;;;5.15;1.00;;;19.60;85.20;;;;;;4903096;29;20213;-94
2022/06/16 08:56:33;;;;;;;2.78;1.00;;;19.80;82.30;;;;;;4910953;29;20026;-92
2022/06/16 08:59:09;;;;;;;1.90;0.88;;;20.00;80.30;;;;;;4922047;29;20548;-94
2022/06/16 09:01:38;;;;;;;3.30;1.25;;;20.10;78.00;;;;;;4932551;29;20031;-92
2022/06/16 09:04:11;;;;;;;2.00;1.00;;;20.40;76.80;;;;;;4921704;29;20028;-95
2022/06/16 09:07:13;;;;;;;2.28;0.82;;;20.50;75.20;;;;;;4912751;29;20036;-92
2022/06/16 09:12:58;;;;;;;2.50;0.90;;;20.90;71.40;;;;;;4919664;29;20059;-94
2022/06/16 09:15:57;;;;;;;2.65;0.98;;;21.10;70.60;;;;;;4902663;29;20027;-95
2022/06/16 09:18:38;;;;;;;1.77;0.82;;;21.20;69.30;;;;;;4902551;29;20040;-94
2022/06/16 09:21:18;;;;;;;4.03;1.00;;;21.40;68.60;;;;;;4902018;29;20032;-95
2022/06/16 09:23:53;;;;;;;5.22;1.00;;;21.60;68.00;;;;;;4902698;29;20486;-94
2022/06/16 09:26:34;;;;;;;1.55;0.80;;;21.70;67.20;;;;;;4903876;29;20475;-93
2022/06/16 09:29:12;;;;;;;3.55;1.02;;;21.80;66.70;;;;;;4916935;29;20043;-94
2022/06/16 09:31:51;;;;;;;2.95;0.65;;;21.90;66.50;;;;;;4937874;29;20044;-94
2022/06/16 09:34:27;;;;;;;5.32;1.20;;;22.10;66.60;;;;;;4938320;29;20032;-94
2022/06/16 09:36:58;;;;;;;4.10;0.98;;;22.30;65.80;;;;;;4938437;29;20094;-93
2022/06/16 09:39:30;;;;;;;6.10;1.35;;;22.30;65.20;;;;;;4938059;29;20111;-93
2022/06/16 09:42:33;;;;;;;7.10;1.08;;;22.30;64.90;;;;;;4921414;29;20024;-94
2022/06/16 09:45:07;;;;;;;8.57;1.40;;;22.30;65.20;;;;;;4942323;29;20031;-94
2022/06/16 09:47:45;;;;;;;4.38;1.40;;;22.20;64.50;;;;;;4910060;29;20108;-93
2022/06/16 09:50:34;;;;;;;2.45;1.08;;;22.20;64.50;;;;;;4924206;29;20028;-94
2022/06/16 09:53:09;;;;;;;6.05;1.63;;;22.20;64.60;;;;;;4904576;29;20044;-93
2022/06/16 09:55:39;;;;;;;2.78;0.90;;;22.30;64.20;;;;;;4905068;29;20028;-96
2022/06/16 09:58:30;;;;;;;1.90;1.30;;;22.40;63.90;;;;;;4901989;29;20398;-95
2022/06/16 10:01:02;;;;;;;3.00;1.00;;;22.50;63.60;;;;;;4904568;29;20035;-91
2022/06/16 10:03:35;;;;;;;4.82;1.00;;;22.60;63.40;;;;;;4902123;29;20409;-95
2022/06/16 10:06:14;;;;;;;1.90;0.90;;;22.80;63.10;;;;;;4902142;29;20020;-92
2022/06/16 10:09:04;;;;;;;5.68;1.23;;;22.90;62.40;;;;;;4902574;29;20127;-94
2022/06/16 10:11:33;;;;;;;2.33;1.10;;;23.00;62.30;;;;;;4908830;29;20028;-93
2022/06/16 10:14:12;;;;;;;4.90;1.13;;;23.10;62.00;;;;;;4915191;29;20003;-92
2022/06/16 10:16:55;;;;;;;3.50;1.17;;;23.20;62.00;;;;;;4919093;29;20164;-91
2022/06/16 10:19:23;;;;;;;5.18;1.52;;;23.40;61.80;;;;;;4943965;29;20039;-92
2022/06/16 10:21:50;;;;;;;4.85;1.33;;;23.40;61.50;;;;;;4920490;29;20427;-93
2022/06/16 10:24:18;;;;;;;4.68;1.40;;;23.50;61.00;;;;;;4920577;29;20032;-93
2022/06/16 10:26:44;;;;;;;6.13;2.25;;;23.50;60.40;;;;;;4920310;29;20024;-91
2022/06/16 10:29:23;;;;;;;7.18;1.77;;;23.50;60.60;;;;;;4921067;29;20030;-92
2022/06/16 10:31:50;;;;;;;16.40;1.58;;;23.70;60.30;;;;;;4920966;29;20044;-92
2022/06/16 10:34:34;;;;;;;2.38;1.30;;;23.80;60.20;;;;;;4910380;29;20036;-92
2022/06/16 10:37:12;;;;;;;5.35;1.10;;;23.90;59.80;;;;;;4914802;29;20016;-91
2022/06/16 10:39:43;;;;;;;4.97;1.40;;;24.10;59.60;;;;;;4919045;29;20043;-92
2022/06/16 10:42:31;;;;;;;5.38;0.95;;;24.30;59.50;;;;;;4903375;29;20028;-93
2022/06/16 10:45:07;;;;;;;4.10;1.00;;;24.40;59.00;;;;;;4901657;29;20119;-90
2022/06/16 10:47:55;;;;;;;3.42;0.93;;;24.50;58.60;;;;;;4901027;29;20051;-92
2022/06/16 10:50:34;;;;;;;2.17;0.98;;;24.70;57.80;;;;;;4905199;29;20040;-91
2022/06/16 10:53:15;;;;;;;1.75;0.93;;;24.80;57.40;;;;;;4901200;29;20040;-92
2022/06/16 10:55:46;;;;;;;3.25;1.10;;;24.90;57.10;;;;;;4903258;29;20119;-92
2022/06/16 10:58:23;;;;;;;3.10;1.00;;;25.00;56.50;;;;;;4901447;29;20033;-93
2022/06/16 11:01:23;;;;;;;1.77;0.85;;;25.10;55.70;;;;;;4902972;29;20123;-93
2022/06/16 11:03:52;;;;;;;0.70;0.68;;;25.00;54.80;;;;;;4901484;29;20024;-92
2022/06/16 11:06:21;;;;;;;1.67;0.63;;;25.00;55.10;;;;;;4900739;29;20028;-92
2022/06/16 11:08:52;;;;;;;2.23;0.73;;;25.10;54.80;;;;;;4900499;29;20482;-92
2022/06/16 11:11:42;;;;;;;2.58;0.52;;;25.20;54.80;;;;;;4900979;29;20280;-93
2022/06/16 11:14:17;;;;;;;2.42;0.50;;;25.40;54.40;;;;;;4902943;29;20391;-93
2022/06/16 11:16:54;;;;;;;4.65;0.80;;;25.50;53.90;;;;;;4903008;29;20568;-95
2022/06/16 11:19:59;;;;;;;5.70;1.08;;;25.70;53.90;;;;;;4900838;29;20615;-92
2022/06/16 11:22:28;;;;;;;3.45;1.08;;;26.00;53.80;;;;;;4900560;29;20371;-93
2022/06/16 11:25:07;;;;;;;3.03;1.10;;;26.00;53.60;;;;;;4900832;29;20107;-94
2022/06/16 11:27:44;;;;;;;1.27;0.80;;;26.00;53.50;;;;;;4900829;29;20200;-93
2022/06/16 11:30:30;;;;;;;2.15;1.20;;;26.10;53.70;;;;;;4900812;29;20045;-93
2022/06/16 11:32:56;;;;;;;2.53;0.95;;;26.20;53.80;;;;;;4900621;29;20040;-93
2022/06/16 11:35:44;;;;;;;3.92;1.02;;;26.30;53.80;;;;;;4900687;29;20036;-92
2022/06/16 11:38:27;;;;;;;6.13;1.55;;;26.40;53.20;;;;;;4900535;29;20051;-92
2022/06/16 11:40:59;;;;;;;5.15;1.10;;;26.40;53.90;;;;;;4901098;29;20024;-92
2022/06/16 11:43:46;;;;;;;4.85;0.70;;;26.50;53.20;;;;;;4901508;29;20120;-91
2022/06/16 11:46:35;;;;;;;3.10;1.25;;;26.70;53.40;;;;;;4901774;29;20130;-90
2022/06/16 11:49:10;;;;;;;1.60;1.10;;;26.80;53.30;;;;;;4901434;29;20024;-92
2022/06/16 11:51:50;;;;;;;3.15;1.10;;;26.70;52.80;;;;;;4905579;29;20036;-92
2022/06/16 11:54:21;;;;;;;10.73;1.20;;;26.70;53.10;;;;;;4901810;29;20080;-91
2022/06/16 11:57:11;;;;;;;2.92;1.33;;;26.70;53.00;;;;;;4919642;29;20107;-94
2022/06/16 12:00:04;;;;;;;2.07;1.10;;;26.50;53.20;;;;;;4906204;29;20044;-95
2022/06/16 12:03:03;;;;;;;5.43;1.10;;;26.50;53.40;;;;;;4904514;29;20051;-93
2022/06/16 12:05:39;;;;;;;7.15;1.48;;;26.50;54.00;;;;;;4904844;29;20079;-94
2022/06/16 12:08:14;;;;;;;4.20;1.20;;;26.60;54.40;;;;;;4905677;29;20064;-96
2022/06/16 12:10:50;;;;;;;5.80;1.30;;;26.80;54.00;;;;;;4920512;29;20050;-95
2022/06/16 12:13:20;;;;;;;7.03;1.40;;;26.80;53.70;;;;;;4914594;29;20043;-93
2022/06/16 12:16:13;;;;;;;3.65;1.10;;;26.90;53.70;;;;;;4916292;29;20024;-94
2022/06/16 12:19:07;;;;;;;6.43;1.38;;;26.90;53.70;;;;;;4922920;29;20107;-93
2022/06/16 12:21:40;;;;;;;8.40;1.40;;;26.90;54.00;;;;;;4916624;29;20086;-94
2022/06/16 12:24:28;;;;;;;2.65;1.27;;;27.00;54.10;;;;;;4917337;29;20020;-93
2022/06/16 12:27:11;;;;;;;2.08;1.10;;;27.20;53.90;;;;;;4928387;29;20051;-93
2022/06/16 12:30:00;;;;;;;2.00;1.17;;;27.40;53.70;;;;;;4928916;29;20012;-92
2022/06/16 12:32:31;;;;;;;5.55;1.23;;;27.40;53.80;;;;;;4929482;29;20141;-89
2022/06/16 12:35:22;;;;;;;2.60;1.10;;;27.40;53.40;;;;;;4930669;29;20096;-91
2022/06/16 12:37:53;;;;;;;;;;;27.50;53.30;;;;;;4922362;29;20023;-92
2022/06/16 12:40:23;;;;;;;4.63;1.42;;;27.50;52.90;;;;;;4934587;29;19907;-93
2022/06/16 12:43:02;;;;;;;5.38;0.90;;;27.50;52.90;;;;;;4914212;29;20027;-93
2022/06/16 12:45:37;;;;;;;5.43;0.95;;;27.60;53.10;;;;;;4920518;29;20107;-94
2022/06/16 12:48:09;;;;;;;6.50;1.23;;;27.50;53.20;;;;;;4913024;29;20024;-93
2022/06/16 12:50:42;;;;;;;2.88;0.90;;;27.40;53.20;;;;;;4941927;29;20032;-94
2022/06/16 12:53:14;;;;;;;4.90;1.10;;;27.20;53.10;;;;;;4931484;29;20040;-93
2022/06/16 12:55:47;;;;;;;2.15;0.85;;;27.20;53.10;;;;;;4933004;29;20028;-93
2022/06/16 12:58:40;;;;;;;3.30;1.10;;;27.20;53.00;;;;;;4930805;29;20038;-93
2022/06/16 13:01:11;;;;;;;4.95;1.05;;;27.30;53.00;;;;;;4930108;29;20070;-94
2022/06/16 13:03:58;;;;;;;4.90;0.98;;;27.40;52.80;;;;;;4926886;29;20024;-96
2022/06/16 13:06:27;;;;;;;3.80;1.42;;;27.50;52.50;;;;;;4940759;29;20039;-95
2022/06/16 13:08:57;;;;;;;3.88;0.95;;;27.80;52.40;;;;;;4922429;29;20027;-95
2022/06/16 13:11:53;;;;;;;2.90;0.82;;;28.00;52.20;;;;;;4922912;29;20031;-91
2022/06/16 13:14:35;;;;;;;1.15;0.90;;;28.30;52.20;;;;;;4923194;29;20024;-93
2022/06/16 13:17:07;;;;;;;2.92;0.90;;;28.60;52.00;;;;;;4923360;29;20032;-94
2022/06/16 13:19:39;;;;;;;2.10;1.10;;;28.90;51.60;;;;;;4916341;29;20036;-92
2022/06/16 13:22:17;;;;;;;3.80;1.38;;;29.00;51.00;;;;;;4936493;29;20027;-92
2022/06/16 13:24:59;;;;;;;1.30;0.70;;;29.00;50.60;;;;;;4923882;29;20036;-92
2022/06/16 13:27:38;;;;;;;4.15;1.48;;;29.00;50.30;;;;;;4923489;29;20048;-94
2022/06/16 13:30:07;;;;;;;3.10;0.95;;;29.10;50.20;;;;;;4922315;29;20165;-94
2022/06/16 13:32:48;;;;;;;1.83;0.80;;;29.20;50.10;;;;;;4923340;29;20095;-94
2022/06/16 13:35:14;;;;;;;3.88;0.90;;;29.40;49.70;;;;;;4924132;29;20486;-95
2022/06/16 13:38:10;;;;;;;1.15;0.93;;;29.60;49.50;;;;;;4925983;29;20035;-94
2022/06/16 13:40:38;;;;;;;2.78;0.80;;;29.70;48.60;;;;;;4928563;29;20035;-94